Xekmatt — OR2473 — position and weather

sailwx.info

Track history (hours):
 
Tides and Currents Weather Stations Pressure Air Temp Water Temp Dewpoint Dewpoint Depression Visibility Wind Speed Wind Dir Waves Ship Positions

Xekmatt

Last reported at 2016-May-16 17:31 UTC. Time now 2016-May-26 16:26 UTC.
Position N 38°41' W 009°13'.
Warning: this ship's position is 9 days out of date.

Length 14 m.

Type: Sailing vessel. MMSI: 205247310.

Date/timePositionNaut miles runAvg speedWind from/ knotsBaromVisibWave heightAir tempDewpointWater temp
2016-May-16 17:31N 38°41' W 009°13'6 6.2
2016-May-16 16:31N 38°41' W 009°21'3 2.8
2016-May-16 15:22N 38°41' W 009°25'0 0.0
2016-May-15 13:33N 38°42' W 009°25'4 4.2
2016-May-15 12:33N 38°38' W 009°23'2 2.1
2016-May-15 11:33N 38°40' W 009°24'0 0.4
2016-May-15 10:33N 38°39' W 009°24'2 2.3
2016-May-15 09:32N 38°42' W 009°25'0 0.0
2016-May-14 14:29N 38°42' W 009°25'4 4.4
2016-May-14 13:33N 38°38' W 009°24'4 3.8
2016-May-14 12:30N 38°42' W 009°25'1 1.1
2016-May-14 11:33N 38°41' W 009°24'1 1.1
2016-May-14 10:32N 38°41' W 009°25'5 5.0
2016-May-14 09:32N 38°40' W 009°19'  
Track history (hours):
 
Tides and Currents Weather Stations Pressure Air Temp Water Temp Dewpoint Dewpoint Depression Visibility Wind Speed Wind Dir Waves Ship Positions

Xekmatt

Last reported at 2016-May-16 17:31 UTC. Time now 2016-May-26 16:26 UTC.
Position N 38°41' W 009°13'.
Warning: this ship's position is 9 days out of date.

Length 14 m.

Type: Sailing vessel. MMSI: 205247310.

Date/timePositionNaut miles runAvg speedWind from/ knotsBaromVisibWave heightAir tempDewpointWater temp
2016-May-16 17:31N 38°41' W 009°13'6 6.2
2016-May-16 16:31N 38°41' W 009°21'3 2.8
2016-May-16 15:22N 38°41' W 009°25'0 0.0
2016-May-15 13:33N 38°42' W 009°25'4 4.2
2016-May-15 12:33N 38°38' W 009°23'2 2.1
2016-May-15 11:33N 38°40' W 009°24'0 0.4
2016-May-15 10:33N 38°39' W 009°24'2 2.3
2016-May-15 09:32N 38°42' W 009°25'0 0.0
2016-May-14 14:29N 38°42' W 009°25'4 4.4
2016-May-14 13:33N 38°38' W 009°24'4 3.8
2016-May-14 12:30N 38°42' W 009°25'1 1.1
2016-May-14 11:33N 38°41' W 009°24'1 1.1
2016-May-14 10:32N 38°41' W 009°25'5 5.0
2016-May-14 09:32N 38°40' W 009°19'  

Dump ship's entire track history